MET: Información y Pronóstico Aeronáutico

///////////////////////////////////////////////////////////////////////////////////////////////////////////////////////////////////////////////////////////////////////////////////////////////////////////////////////////////////////////////

Member for

9 meses 1 semana
Enviado por meteorologia el Jue, 23/11/2017 - 11:39
22-4

22 DE ABRIL 2019

INFORMACION METEOROLOGICA AERONAUTICA (METAR) 12:00 UTC

 

Aeropuerto AEROPARQUE J. NEWBERY

22 - 12:00 METAR SABE 221200Z 17004KT 9999 FEW030 BKN200 16/12 Q1021 NOSIG =

Aeropuerto BAHIA BLANCA

22 - 12:00 METAR SAZB 221200Z 00000KT CAVOK 08/06 Q1021 =

Aeropuerto BARILOCHE

22 - 12:00 METAR SAZS 221200Z 17004KT 9999 FEW100 00/M03 Q1017 =

Aeropuerto CATAMARCA

22 - 12:00 METAR SANC 221200Z 23004KT 3000 -DZ SCT005 OVC010 15/14 Q1018 =

Aeropuerto CHAPELCO

22 - 12:00 METAR SAZY 221200Z 00000KT 0800 FG FEW009 00/M01 Q1017 =

Aeropuerto COMODORO RIVADAVIA

22 - 12:00 METAR SAVC 221200Z 32004KT CAVOK 10/02 Q1015 =

Aeropuerto CORDOBA

22 - 12:00 METAR SACO 221200Z 02002KT 8000 -RA FEW012 BKN035 11/11 Q1021 NOSIG =

Aeropuerto CORRIENTES

22 - 12:00 METAR SARC 221200Z 16013KT 5000 -DZ BR SCT005 OVC007 19/18 Q1014 =

Aeropuerto EL CALAFATE

22 - 12:00 METAR SAWC 221200Z 11003KT CAVOK 06/04 Q1011 =

Aeropuerto EL PALOMAR

22 - 12:00 METAR SADP 221200Z 15003KT 9000 NSC 13/11 Q1022 =

Aeropuerto ESQUEL

22 - 12:00 METAR SAVE 221200Z 29002KT 230V300 1300 VCFG NSC M01/M01 Q1017 =

Aeropuerto EZEIZA

22 - 12:00 METAR SAEZ 221200Z 13003KT 7000 NSC 10/10 Q1021 NOSIG =

Aeropuerto FORMOSA

22 - 12:00 METAR SARF 221200Z 16007KT 9999 OVC015 23/22 Q1012 =

Aeropuerto IGUAZU/CATARATAS

22 - 12:00 METAR SARI 221200Z 07002KT 9999 FEW005 SCT100 20/19 Q1014 =

Aeropuerto JUJUY

22 - 12:00 METAR SASJ 221200Z 18008KT 8000 -DZ BR FEW008 SCT015 OVC035 17/16 Q1017 =

Aeropuerto LA RIOJA

22 - 12:00 METAR SANL 221200Z 23005KT 2000 DZ OVC007 12/12 Q1020 =

Aeropuerto MALARGUE

22 - 12:00 METAR SAMM 221200Z 23003KT 9999 FEW035 08/01 Q1021 =

Aeropuerto MAR DEL PLATA

22 - 12:00 METAR SAZM 221200Z 27004KT 9999 BKN030 11/09 Q1021 =

Aeropuerto MENDOZA

22 - 12:00 METAR SAME 221200Z 18009KT 9999 -RA BKN040 13/11 Q1019 =

Aeropuerto MORON

22 - 12:00 METAR SADM 221200Z 11003KT 5000 BR NSC 13/11 Q1022 =

Aeropuerto NEUQUEN

22 - 12:00 METAR SAZN 221200Z 09004KT CAVOK 11/04 Q1017 =

Aeropuerto PARANA

22 - 11:00 METAR SAAP 221100Z 16003KT CAVOK 14/10 Q1021 =

Aeropuerto POSADAS

22 - 12:00 METAR SARP 221200Z 11005KT 9999 BKN008 21/21 Q1014 =

Aeropuerto PUERTO MADRYN

22 - 12:00 METAR SAVY 221200Z 34013KT CAVOK 12/09 Q1015 =

Aeropuerto RECONQUISTA

22 - 12:00 METAR SATR 221200Z 14012KT CAVOK 17/13 Q1016 =

Aeropuerto RESISTENCIA

22 - 12:00 METAR SARE 221200Z 12010KT 8000 OVC007 19/19 Q1013 =

Aeropuerto RIO CUARTO

22 - 12:00 METAR SAOC 221200Z 05012G22KT 9999 FEW025 FEW030 12/11 Q1020 =

Aeropuerto RIO GALLEGOS

22 - 12:00 METAR SAWG 221200Z 00000KT 9999 FEW040 BKN100 02/01 Q1010 =

Aeropuerto RIO GRANDE

22 - 12:00 METAR SAWE 221200Z 27003KT 240V330 CAVOK 02/01 Q1009 =

Aeropuerto ROSARIO

22 - 12:00 METAR SAAR 221200Z 16003KT 9999 FEW040 BKN100 OVC200 14/11 Q1021 =

Aeropuerto SALTA

22 - 12:00 METAR SASA 221200Z 32004KT 7000 -RA FEW007 BKN012 BKN100 16/16 Q1017 =

Aeropuerto SAN FERNANDO

22 - 12:00 METAR SADF 221200Z 00000KT 9000 NSC 15/12 Q1022 =

Aeropuerto SAN JUAN

22 - 12:00 METAR SANU 221200Z 14007KT 9999 OVC035 13/11 Q1019 =

Aeropuerto SAN LUIS

22 - 12:00 METAR SAOU 221200Z 29004KT 250V310 9999 FEW020 BKN040 13/12 Q1019 =

Aeropuerto SAN RAFAEL

22 - 12:00 METAR SAMR 221200Z 27007KT 5000 RA OVC015 BKN025 12/08 Q1018 =

Aeropuerto SANTA ROSA

22 - 12:00 METAR SAZR 221200Z 34002KT 5000 NSC 10/06 Q1021 =

Aeropuerto SANTIAGO DEL ESTERO

22 - 12:00 METAR SANE 221200Z 20012KT 2500 -DZ SCT002 OVC010 15/14 Q1017 =

Aeropuerto SAUCE VIEJO

22 - 12:00 METAR SAAV 221200Z 13003KT 9999 -RA FEW015 SCT030 BKN080 15/11 Q1020 =

Aeropuerto TANDIL

22 - 12:00 METAR SAZT 221200Z 23004KT CAVOK 09/08 Q1022 =

Aeropuerto TERMAS DE RIO HONDO

22 - 12:00 METAR SANR 221200Z 18010KT 6000 DZ BKN007 OVC035 15/14 Q1018 =

Aeropuerto TRELEW

22 - 12:00 METAR SAVT 221200Z 36010KT CAVOK 12/08 Q1016 =

Aeropuerto TUCUMAN

22 - 12:00 METAR SANT 221200Z 18006KT 2000 -DZ BKN003 OVC030 14/14 Q1018 =

Aeropuerto USHUAIA

22 - 12:00 METAR SAWH 221200Z 25006KT 9999 SCT018 BKN080 04/02 Q1007 =

Aeropuerto VIEDMA

22 - 12:00 METAR SAVV 221200Z 34005KT 310V030 5000 BR NSC 03/02 Q1019 =

Aeropuerto VILLA REYNOLDS

22 - 12:00 METAR SAOR 221200Z 00000KT 9999 RERA BKN030 12/10 Q1020 =

 

PRONOSTICO DE AERODROMO (TAF) 11:00 UTC

 

Estación AEROPARQUE J. NEWBERY

22 - 11:00 TAF SABE 221100Z 2212/2312 16005KT 9999 FEW030 TX19/2218Z TN15/2310Z BECMG 2218/2220 11010KT SCT030 BECMG 2223/2301 9999 SCT020 BKN030 BECMG 2304/2306 06010KT CAVOK =

Estación BAHIA BLANCA

22 - 11:00 TAF SAZB 221100Z 2212/2312 36005KT CAVOK TX24/2219Z TN10/2310Z BECMG 2223/2302 02010KT BECMG 2310/2312 36015KT =

Estación BARILOCHE

22 - 11:00 TAF SAZS 221100Z 2212/2312 VRB03KT CAVOK TX18/2220Z TNM02/2310Z BECMG 2217/2219 29010KT BECMG 2223/2301 VRB03KT =

Estación CATAMARCA

22 - 11:00 TAF SANC 2221100Z 2212/2312 20005KT 3000 DZ SCT005 OVC030 TX16/2206Z TN09/2324Z BECMG 2215/2218 09010KT 7000DZ SCT010 OVC045 =

Estación CHAPELCO

22 - 11:00 TAF SAZY 221100Z 2212/2312 09005KT CAVOK TX22/2220Z TN04/2310Z BECMG 2218/2221 27010KT BECMG 2305/2307 VRB03KT =

Estación COMODORO RIVADAVIA

22 - 11:00 TAF SAVC 221100Z 2212/2312 27010KT CAVOK TX22/2218Z TN09/2310Z BECMG 2217/2218 VRB10KT BECMG 2221/2303 22020KT 9999 SCT030 BKN070 BECMG 2306/2309 VRB10KT =

Estación CORDOBA

22 - 11:00 TAF SACO 221100Z 2212/2312 14005KT 7000 DZ SCT012 BKN035 TX19/2219Z TN10/2310Z BECMG 2215/2218 14005KT 9999 SCT010 BKN030 BECMG 2218/2221 09005KT 9999 FEW015 BKN040 =

Estación CORRIENTES

22 - 11:00 TAF SARC 221100Z 2212/2312 14010KT 3000 DZ OVC004 TX26/2218Z TN14/2309Z BECMG 2215/2218 9999 BKN020 BECMG 2307/2308 16005KT 2000 BR SCT020 =

Estación EL CALAFATE

22 - 11:00 TAF SAWC 221100Z 2212/2312 29005KT 9999 FEW040 SCT100 TX13/2218Z TN01/2310Z PROB40 TEMPO 2218/2221 26020KT 8000 -RA BKN020 OVC050 BECMG 2301/2303 25010KT CAVOK BECMG 2306/2309 VRB10KT =

Estación EL PALOMAR

22 - 11:00 TAF SADP 221100Z 2212/2312 19005KT CAVOK TX21/2219Z TN12/2310Z BECMG 2223/2301 09005KT BECMG 2305/2307 5000 BR SCT015 PROB40 TEMPO 2308/2312 3000 DZ SCT010 BKN030 =

Estación ESQUEL

22 - 11:00 TAF SAVE 221100Z 2212/2312 23005KT CAVOK TX15/2218Z TNM01/2309Z BECMG 2221/2304 VRB07KT 9999 SCT030 BECMG 2306/2310 14005KT CAVOK =

Estación EZEIZA

22 - 11:00 TAF SAEZ 221100Z 2212/2312 19005KT 8000 NSC TX21/2219Z TN12/2310Z BECMG 2212/2214 CAVOK BECMG 2223/2301 09005KT BECMG 2305/2307 5000 BR SCT015 PROB40 TEMPO 2308/2312 3000 DZ SCT010 BKN030 =

Estación FORMOSA

22 - 11:00 TAF SARF 221100Z 2212/2312 14010KT 5000 DZ OVC005 TX27/2218Z TN16/2309Z BECMG 2215/2218 9999 BKN020 BECMG 2307/2308 12005KT 2000 BR SCT020 =

Estación IGUAZU/CATARATAS

22 - 11:00 TAF SARI 221100Z 2212/2312 18005KT 2000 RADZ BR FEW002 OVC005 TX25/2218Z TN16/2309Z BECMG 2215/2218 5000 TSRA BKN008 FEW055CB BECMG 2300/2302 VRB03KT 0200 FG SCT005 =

Estación JUJUY

22 - 11:00 TAF SASJ 221100Z 2212/2312 18005KT 3000 DZ SCT006 TX20/2219Z TN13/2310Z OVC030 =

Estación LA RIOJA

22 - 11:00 TAF SANL 221100Z 2212/231214003KT 4000 DZ BKN010 OVC040 TX16/2206Z TN12/2324Z BECMG 2215/2218 09010KT 7000 DZ OVC020 =

Estación MAR DEL PLATA

22 - 11:00 TAF SAZM 221100Z 2212/2312 25007KT 9999 BKN030 TX18/2217Z TN07/2310Z BECMG 2218/2220 16010KT 9999 FEW030 BECMG 2223/2302 32005KT 7000 BR NSC =

Estación MENDOZA

22 - 11:00 TAF SAME 221100Z 2212/2312 16010KT 9999 SCT040 TX24/2220Z TN09/2310Z TEMPO 2212/2214 16010KT 6000 DZ OVC030 BECMG 2220/2222 14005KT 9999 FEW040 =

Estación NEUQUEN

22 - 11:00 TAF SAZN 221100Z 2212/2312 VRB05KT CAVOK TX25/2219Z TN11/2311Z =

Estación PARANA

22 - 11:00 TAF SAAP 221100Z 2212/2312 16005KT CAVOK TX23/2219Z TN11/2309Z TEMPO 2212/2215 16010KT 8000 RADZ BKN020 OVC050 BECMG 2217/2219 09010KT 9999 NSW SCT020 BKN050 BECMG 2220/2223 14005KT CAVOK PROB40 TEMPO 2308/2312 8000 RADZ SCT030 BKN050 =

Estación POSADAS

22 - 11:00 TAF SARP 221100Z 2212/2312 14010KT 3000 DZ OVC004 TX26/2218Z TN17/2309Z BECMG 2215/2218 9999 BKN020 BECMG 2307/2308 14005KT 2000 BR SCT020 =

Estación RESISTENCIA

22 - 11:00 TAF SARE 221100Z 2212/2312 14010KT 3000 DZ OVC004 TX26/2218Z TN14/2309Z BECMG 2215/2218 9999 BKN020 BECMG 2307/2308 16005KT 2000 BR SCT020 =

Estación RIO CUARTO

22 - 11:00 TAF SAOC 221100Z 2212/2312 36005KT 3000 +DZ BKN010 OVC030 TX16/2206Z TN12/2324Z BECMG 2215/2218 09010KT 7000 -DZ SCT015 BKN040 =

Estación RIO GALLEGOS

22 - 11:00 TAF SAWG 221100Z 2212/2312 25005KT 9999 FEW030 SCT100 TX11/2218Z TN03/2311Z BECMG 2218/2220 27015KT 9999 SCT030 OVC050 PROB40 TEMPO 2218/2222 -RA BKN030 OVC050 BECMG 2301/2307 25020KT CAVOK BECMG 2309/2312 27015KT =

Estación RIO GRANDE

22 - 11:00 TAF SAWE 221100Z 2212/2312 29005KT CAVOK TX11/2218Z TN02/2309Z BECMG 2219/2221 27020KT 9999 BKN020 OVC050 BECMG 2302/2309 25020KT CAVOK =

Estación ROSARIO

22 - 11:00 TAF SAAR 221100Z 2212/2312 VRB03KT 9999 SCT030 BKN040 OVC100 TX19/2218Z TN12/2310Z TEMPO 2212/2217 7000 -RA BECMG 2217/2219 10010KT BECMG 2306/2309 VRB03KT BKN030 =

Estación SALTA

22 - 11:00 TAF SASA 221100Z 2212/2312 18005KT 8000 FEW006 BKN030 TX20/2219Z TN12/2310Z BECMG 2215/2218 05005KT 7000 DZ BKN030 SCT007 OVC035 =

Estación SAN FERNANDO

22 - 11:00 TAF SADF 221100Z 2212/2312 16005KT CAVOK TX21/2218Z TN13/2310Z BECMG 2221/2223 09005KT SCT020 BKN060 BECMG 2305/2307 05005KT FEW020 SCT100 =

Estación SAN JUAN

22 - 11:00 TAF SANU 221100Z 2212/2312 16010KT 9999 OVC040 TX24/2220Z TN10/2310Z BECMG 2214/2216 16010KT 9999 SCT040 BECMG 2222/2300 36005KT CAVOK =

Estación SAN LUIS

22 - 11:00 TAF SAOU 221100Z 2212/2312 36010KT 5000 DZ BKN015 OVC020 TX18/2219Z TN12/2309Z BECMG 2215/2217 02005KT 8000 DZ BKN030 BECMG 2302/2304 36015KT 9999 SCT040 =

Estación SAN RAFAEL

22 - 11:00 TAF SAMR 221100Z 2212/2312 16010KT 9999 FEW040 TX22/2220Z TN08/2310Z BECMG 2220/2222 03005KT CAVOK =

Estación SANTA ROSA

22 - 11:00 TAF SAZR 221100Z 2212/2312 25005KT CAVOK TX25/2219Z TN08/2310Z BECMG 2214/2217 02010KT BECMG 2309/2311 9999 SCT030 =

Estación SANTIAGO DEL ESTERO

22 - 11:00 TAF SANE 221100Z 2212/2312 14005KT 5000 DZ SCT005 OVC030 TX16/2206Z TN14/2324Z BECMG 2215/2218 09010KT 7000 DZ SCT010 OVC035 =

Estación SAUCE VIEJO

22 - 11:00 TAF SAAV 221100Z 2212/2312 15005KT CAVOK TX24/2219Z TN12/2309Z TEMPO 2212/2215 16010KT 8000 RADZ BKN020 OVC050 BECMG 2217/2219 09010KT 9999 NSW SCT020 BKN050 BECMG 2220/2223 14005KT CAVOK PROB40 TEMPO 2308/2312 8000 RADZ SCT030 BKN050 =

Estación TERMAS DE RIO HONDO

22 - 11:00 TAF SANR 221100Z 2212/2312 16003KT 2000 DZ SCT004 OVC025 TX16/2206Z TN14/2324Z BECMG 2215/2218 09005KT 5000 DZ =

Estación TRELEW

22 - 11:00 TAF SAVT 221100Z 2212/2312 05008KT CAVOK TX24/2218Z TN10/2309Z BECMG 2212/2215 34015KT BECMG 2218/2223 25005KT BECMG 2301/2311 20015KT =

Estación TUCUMAN

22 - 11:00 TAF SANT 221100Z 2212/2312 14003KT 1000 DZ SCT005 OVC025 TX17/2206Z TN11/2324Z BECMG 2215/2218 VRB03KT 3000 DZ SCT007 OVC030 =

Estación USHUAIA

22 - 11:00 TAF SAWH 221100Z 2212/2312 VRB05KT CAVOK TX12/2218Z TN01/2311Z BECMG 2215/2217 32010KT 9999 SCT030 BKN090 BECMG 2220/2222 23015KT -RA BKN030 OVC050 BECMG 2303/2309 34010KT SCT030 SCT070 =

Estación VIEDMA

22 - 11:00 TAF SAVV 221100Z 2212/2312 VRB03KT 0400 MIFG TX23/2218Z TN12/2309Z BECMG 2214/2216 36010KT CAVOK BECMG 2303/2306 33020KT BECMG 2309/2311 VRB10KT =